Time;durP1;ratioP1;P1;durP2;ratioP2;P2;SDS_P1;SDS_P2;PMS_P1;PMS_P2;Temp;Humidity;BMP_temperature;BMP_pressure;BME280_temperature;BME280_humidity;BME280_pressure;Samples;Min_cycle;Max_cycle;Signal;HPM_P1;HPM_P2
2021/10/20 00:06:59;;;;;;;9.75;2.70;;;15.70;99.90;;;;;;20627354;28;20137;-82
2021/10/20 00:17:00;;;;;;;4.75;2.08;;;15.70;99.90;;;;;;20664624;28;20049;-83
2021/10/20 00:27:01;;;;;;;4.32;2.38;;;15.70;99.90;;;;;;20627004;28;20144;-83
2021/10/20 00:37:05;;;;;;;4.38;2.17;;;15.70;99.90;;;;;;20628745;28;20034;-82
2021/10/20 00:47:08;;;;;;;6.13;2.28;;;15.90;99.90;;;;;;20636837;28;20061;-82
2021/10/20 00:57:11;;;;;;;9.82;2.05;;;15.80;99.90;;;;;;20614521;28;20121;-82
2021/10/20 01:07:12;;;;;;;4.97;2.40;;;15.80;99.90;;;;;;20648247;28;20038;-82
2021/10/20 01:17:14;;;;;;;6.22;2.10;;;15.80;99.90;;;;;;20615578;28;20034;-82
2021/10/20 01:27:15;;;;;;;4.88;2.78;;;15.80;99.90;;;;;;20644470;28;20810;-83
2021/10/20 01:37:16;;;;;;;5.53;2.72;;;15.70;99.90;;;;;;20659099;28;20073;-82
2021/10/20 01:47:17;;;;;;;7.28;2.58;;;15.50;99.90;;;;;;20623433;28;20052;-82
2021/10/20 01:57:19;;;;;;;7.32;2.67;;;15.40;99.90;;;;;;20606983;28;20052;-82
2021/10/20 02:07:20;;;;;;;5.15;3.10;;;15.30;99.90;;;;;;20672778;28;20519;-83
2021/10/20 02:17:21;;;;;;;5.20;2.80;;;15.30;99.90;;;;;;20620172;28;20030;-81
2021/10/20 02:27:23;;;;;;;6.03;2.67;;;15.40;99.90;;;;;;20650278;28;20103;-83
2021/10/20 02:37:24;;;;;;;5.78;2.53;;;15.30;99.90;;;;;;20654080;28;20045;-83
2021/10/20 02:47:25;;;;;;;7.03;2.90;;;15.30;99.90;;;;;;20650887;28;20056;-82
2021/10/20 02:57:26;;;;;;;5.00;2.72;;;15.30;99.90;;;;;;20604369;28;20069;-82
2021/10/20 03:07:27;;;;;;;8.90;3.05;;;15.40;99.90;;;;;;20634802;28;20056;-82
2021/10/20 03:17:28;;;;;;;7.47;2.75;;;15.50;99.90;;;;;;20607880;28;20434;-82
2021/10/20 03:27:29;;;;;;;7.30;3.05;;;15.50;99.90;;;;;;20522965;28;20046;-82
2021/10/20 03:37:31;;;;;;;6.10;2.83;;;15.50;99.90;;;;;;20610371;28;20049;-83
2021/10/20 03:47:32;;;;;;;8.35;3.53;;;15.50;99.90;;;;;;20676913;28;20494;-82
2021/10/20 03:57:35;;;;;;;8.40;3.28;;;15.60;99.90;;;;;;20662728;28;20049;-81
2021/10/20 04:07:39;;;;;;;9.23;4.05;;;15.60;99.90;;;;;;20631972;28;20406;-83
2021/10/20 04:17:41;;;;;;;6.75;3.35;;;15.70;99.90;;;;;;20636617;28;20054;-81
2021/10/20 04:27:43;;;;;;;7.95;3.45;;;15.70;99.90;;;;;;20636494;28;20033;-82
2021/10/20 04:37:44;;;;;;;5.40;2.55;;;15.90;99.90;;;;;;20624219;28;20704;-83
2021/10/20 04:47:45;;;;;;;6.53;3.00;;;15.90;99.90;;;;;;20614417;28;20054;-83
2021/10/20 04:57:53;;;;;;;9.20;3.05;;;16.00;99.90;;;;;;20659825;28;20049;-82
2021/10/20 05:07:58;;;;;;;13.93;3.97;;;16.10;99.90;;;;;;20653373;28;20342;-82
2021/10/20 05:17:59;;;;;;;7.07;2.92;;;16.10;99.90;;;;;;20682524;28;20041;-82
2021/10/20 05:28:00;;;;;;;8.95;3.20;;;16.50;99.90;;;;;;20636140;28;20053;-82
2021/10/20 05:38:01;;;;;;;7.97;3.03;;;16.80;99.90;;;;;;20645055;28;20390;-82
2021/10/20 05:48:04;;;;;;;8.00;3.13;;;16.80;99.90;;;;;;20619547;28;20902;-82
2021/10/20 05:58:05;;;;;;;8.02;3.42;;;16.80;99.90;;;;;;20596140;28;20041;-82
2021/10/20 06:08:06;;;;;;;6.53;2.90;;;16.60;99.90;;;;;;20582671;28;20090;-82
2021/10/20 06:18:08;;;;;;;5.70;2.83;;;16.60;99.90;;;;;;20598349;28;20045;-83
2021/10/20 06:28:09;;;;;;;5.05;2.70;;;16.60;99.90;;;;;;20600045;28;20065;-82
2021/10/20 06:38:10;;;;;;;5.47;2.67;;;16.40;99.90;;;;;;20650836;28;22176;-82
2021/10/20 06:48:11;;;;;;;5.10;2.30;;;16.30;99.90;;;;;;20657455;28;20038;-81
2021/10/20 06:58:12;;;;;;;7.53;2.05;;;16.20;99.90;;;;;;20628835;28;20061;-83
2021/10/20 07:08:13;;;;;;;6.18;2.40;;;16.00;99.90;;;;;;20638774;28;20042;-83
2021/10/20 07:18:14;;;;;;;8.57;2.85;;;15.40;99.90;;;;;;20620256;28;20049;-85
2021/10/20 07:28:15;;;;;;;6.35;2.55;;;15.10;99.90;;;;;;20619690;28;20042;-84
2021/10/20 07:38:16;;;;;;;5.05;2.40;;;15.00;99.90;;;;;;20674360;28;20400;-84
2021/10/20 07:48:18;;;;;;;5.78;2.35;;;14.90;99.90;;;;;;20614573;28;20829;-84
2021/10/20 07:58:19;;;;;;;5.93;2.58;;;14.90;99.90;;;;;;20683324;28;20043;-84
2021/10/20 08:08:20;;;;;;;9.68;2.47;;;15.10;99.90;;;;;;20638981;28;20053;-84
2021/10/20 08:18:22;;;;;;;10.93;3.45;;;15.00;99.90;;;;;;20602408;28;20602;-84
2021/10/20 08:28:23;;;;;;;8.40;2.95;;;15.10;99.90;;;;;;20631245;28;20059;-84
2021/10/20 08:38:24;;;;;;;5.63;2.33;;;15.40;99.90;;;;;;20657297;28;20033;-84
2021/10/20 08:48:29;;;;;;;7.28;2.97;;;15.70;99.90;;;;;;20661610;28;20312;-84
2021/10/20 08:58:30;;;;;;;5.75;2.90;;;15.80;99.90;;;;;;20668192;28;20401;-84
2021/10/20 09:08:45;;;;;;;8.77;3.42;;;15.90;99.90;;;;;;20665541;28;20037;-83
2021/10/20 09:18:46;;;;;;;7.82;3.42;;;16.20;99.90;;;;;;20673732;28;20038;-81
2021/10/20 09:28:47;;;;;;;7.32;3.50;;;16.50;99.90;;;;;;20641583;28;20398;-83
2021/10/20 09:38:49;;;;;;;16.25;3.38;;;16.60;99.90;;;;;;20679246;28;20072;-83
2021/10/20 09:48:50;;;;;;;9.40;3.67;;;16.60;99.90;;;;;;20656665;28;20037;-82
2021/10/20 09:58:52;;;;;;;7.10;3.17;;;16.70;99.90;;;;;;20655772;28;20140;-82
2021/10/20 10:08:54;;;;;;;7.35;3.05;;;16.80;99.90;;;;;;20627352;28;20035;-81
2021/10/20 10:18:58;;;;;;;5.00;2.30;;;16.80;99.90;;;;;;20634991;28;20052;-83
2021/10/20 10:29:25;;;;;;;4.72;2.30;;;17.00;99.90;;;;;;20597041;28;20062;-84
2021/10/20 10:39:31;;;;;;;7.20;2.10;;;17.20;99.90;;;;;;20594332;28;20052;-83
2021/10/20 10:49:38;;;;;;;5.38;2.10;;;17.30;99.90;;;;;;20594139;28;20046;-83
2021/10/20 10:59:51;;;;;;;5.63;2.70;;;17.20;99.90;;;;;;20602747;28;20161;-83
2021/10/20 11:09:59;;;;;;;4.75;2.42;;;17.30;99.90;;;;;;20673465;28;20064;-81
2021/10/20 11:20:08;;;;;;;7.93;2.45;;;17.30;99.90;;;;;;20678310;28;20065;-83
2021/10/20 11:30:09;;;;;;;5.97;2.33;;;17.30;99.90;;;;;;20640777;28;20350;-82
2021/10/20 11:40:11;;;;;;;8.13;2.75;;;17.30;99.90;;;;;;20637600;28;20430;-83
2021/10/20 11:50:16;;;;;;;6.65;2.47;;;17.20;99.90;;;;;;20640741;28;20074;-82
2021/10/20 12:00:20;;;;;;;3.60;2.00;;;17.30;99.90;;;;;;20606232;28;20059;-82
2021/10/20 12:10:22;;;;;;;4.78;1.90;;;17.40;99.90;;;;;;20618607;28;20133;-81
2021/10/20 12:20:24;;;;;;;5.45;2.25;;;17.30;99.90;;;;;;20621374;28;20498;-82
2021/10/20 12:30:27;;;;;;;3.45;1.95;;;17.30;99.90;;;;;;20696957;28;20054;-83
2021/10/20 12:40:29;;;;;;;3.92;1.88;;;17.50;99.90;;;;;;20684205;28;20058;-82
2021/10/20 12:50:37;;;;;;;5.40;2.25;;;17.60;99.90;;;;;;20644718;28;20102;-82
2021/10/20 13:00:40;;;;;;;6.55;1.88;;;17.80;99.90;;;;;;20670825;28;20058;-82
2021/10/20 13:10:42;;;;;;;3.42;0.93;;;18.00;99.90;;;;;;20630444;28;20554;-82
2021/10/20 13:20:44;;;;;;;3.55;1.55;;;18.40;99.90;;;;;;20662104;28;20034;-82
2021/10/20 13:30:45;;;;;;;5.88;1.20;;;18.10;99.90;;;;;;20687620;28;20051;-82
2021/10/20 13:40:46;;;;;;;4.93;1.13;;;17.90;99.90;;;;;;20662853;28;20034;-84
2021/10/20 13:50:48;;;;;;;6.22;1.10;;;17.90;99.90;;;;;;20689794;28;20052;-81
2021/10/20 14:00:49;;;;;;;5.82;0.95;;;17.80;99.90;;;;;;20672376;28;20052;-81
2021/10/20 14:10:50;;;;;;;2.72;1.00;;;18.10;99.90;;;;;;20679103;28;20046;-82
2021/10/20 14:20:51;;;;;;;4.07;1.35;;;18.00;99.90;;;;;;20641261;28;20506;-82
2021/10/20 14:30:53;;;;;;;13.00;1.45;;;17.80;99.90;;;;;;20655726;28;20235;-81
2021/10/20 14:40:55;;;;;;;4.45;1.10;;;17.70;99.90;;;;;;20693950;28;20034;-81
2021/10/20 14:50:56;;;;;;;3.08;1.15;;;17.60;99.90;;;;;;20676243;28;20046;-83
2021/10/20 15:00:58;;;;;;;3.47;1.25;;;17.40;99.90;;;;;;20679865;28;20038;-82
2021/10/20 15:10:59;;;;;;;3.58;1.63;;;17.00;99.90;;;;;;20662072;28;20449;-83
2021/10/20 15:31:02;;;;;;;4.55;1.85;;;17.00;99.90;;;;;;20666832;28;20070;-82
2021/10/20 15:41:04;;;;;;;3.20;1.63;;;17.00;99.90;;;;;;20636070;28;20041;-82
2021/10/20 15:51:07;;;;;;;3.28;1.50;;;17.00;99.90;;;;;;20623187;28;20520;-83
2021/10/20 16:01:08;;;;;;;1.77;0.90;;;16.90;99.90;;;;;;20640453;28;20054;-82
2021/10/20 16:11:09;;;;;;;2.50;1.23;;;16.90;99.90;;;;;;20610196;28;20054;-83
2021/10/20 16:21:14;;;;;;;2.70;0.75;;;16.70;99.90;;;;;;20575899;28;20038;-81
2021/10/20 16:31:15;;;;;;;4.63;0.70;;;15.50;99.90;;;;;;20609840;28;20061;-81
2021/10/20 16:41:18;;;;;;;3.85;0.63;;;15.00;99.90;;;;;;20611045;28;20034;-82
2021/10/20 16:51:19;;;;;;;5.40;1.25;;;14.60;99.90;;;;;;20641996;28;20056;-81
2021/10/20 17:01:22;;;;;;;5.63;0.50;;;14.40;99.90;;;;;;20615149;28;20084;-82
2021/10/20 17:11:23;;;;;;;4.93;1.05;;;14.40;99.90;;;;;;20653413;28;20061;-82
2021/10/20 17:21:26;;;;;;;4.10;1.55;;;14.60;99.90;;;;;;20687858;28;20034;-83
2021/10/20 17:31:28;;;;;;;7.45;1.17;;;14.90;99.90;;;;;;20596821;28;20045;-83
2021/10/20 17:41:29;;;;;;;3.28;1.05;;;14.90;99.90;;;;;;20632467;28;20042;-84
2021/10/20 17:51:31;;;;;;;5.22;0.70;;;14.80;99.90;;;;;;20629446;28;20038;-82
2021/10/20 18:01:32;;;;;;;4.07;1.13;;;14.80;99.90;;;;;;20668200;28;20042;-83
2021/10/20 18:11:34;;;;;;;7.18;0.68;;;15.00;99.90;;;;;;20634812;28;20042;-83
2021/10/20 18:21:36;;;;;;;9.88;0.82;;;15.20;99.90;;;;;;20611081;28;20038;-83
2021/10/20 18:31:37;;;;;;;8.98;1.50;;;15.40;99.90;;;;;;20642424;28;20562;-84
2021/10/20 18:41:38;;;;;;;1.20;0.77;;;15.50;99.90;;;;;;20692667;28;20050;-83
2021/10/20 18:51:40;;;;;;;4.82;1.50;;;15.40;99.90;;;;;;20651920;28;20133;-83
2021/10/20 19:01:41;;;;;;;5.00;0.77;;;15.40;99.90;;;;;;20641188;28;20045;-85
2021/10/20 19:11:43;;;;;;;4.10;1.20;;;15.30;99.90;;;;;;20628796;28;20039;-84
2021/10/20 19:21:45;;;;;;;3.30;0.60;;;15.30;99.90;;;;;;20613146;28;20065;-83
2021/10/20 19:31:49;;;;;;;1.05;0.30;;;15.10;99.90;;;;;;20625410;28;20050;-84
2021/10/20 19:41:50;;;;;;;7.63;1.10;;;14.90;99.90;;;;;;20636111;28;21039;-85
2021/10/20 19:51:51;;;;;;;3.17;0.70;;;14.90;99.90;;;;;;20603200;28;20189;-84
2021/10/20 20:01:53;;;;;;;8.73;1.88;;;14.90;99.90;;;;;;20620793;28;20042;-84
2021/10/20 20:11:54;;;;;;;5.82;0.65;;;14.80;99.90;;;;;;20594282;28;20060;-84
2021/10/20 20:21:55;;;;;;;3.55;1.42;;;14.60;99.90;;;;;;20657982;28;20033;-85
2021/10/20 20:31:56;;;;;;;3.90;0.60;;;14.60;99.90;;;;;;20588906;28;20102;-84
2021/10/20 20:41:58;;;;;;;2.03;0.55;;;14.60;99.90;;;;;;20576006;28;20056;-84
2021/10/20 20:51:59;;;;;;;5.28;0.82;;;14.50;99.90;;;;;;20572888;28;20039;-83
2021/10/20 21:02:00;;;;;;;12.65;0.95;;;14.50;99.90;;;;;;20616530;28;20501;-84
2021/10/20 21:12:01;;;;;;;4.90;0.68;;;14.50;99.90;;;;;;20627526;28;20725;-84
2021/10/20 21:22:03;;;;;;;1.60;0.40;;;14.40;99.90;;;;;;20589272;28;20057;-85
2021/10/20 21:32:05;;;;;;;2.97;0.50;;;14.20;99.90;;;;;;20628619;28;20046;-83
2021/10/20 21:42:06;;;;;;;2.42;0.75;;;14.00;99.90;;;;;;20635827;28;20042;-85
2021/10/20 21:52:07;;;;;;;3.00;0.85;;;14.00;99.90;;;;;;20623625;28;20521;-85
2021/10/20 22:02:08;;;;;;;3.65;0.88;;;13.90;99.90;;;;;;20567532;28;20056;-84
2021/10/20 22:12:13;;;;;;;4.80;0.75;;;14.00;99.90;;;;;;20615439;28;21989;-84
2021/10/20 22:22:14;;;;;;;4.80;1.00;;;13.90;99.90;;;;;;20654342;28;20045;-83
2021/10/20 22:32:15;;;;;;;9.00;1.42;;;13.80;99.90;;;;;;20611203;28;20044;-84
2021/10/20 22:42:17;;;;;;;2.20;1.25;;;13.80;99.90;;;;;;20569469;28;20034;-84
2021/10/20 22:52:21;;;;;;;1.27;0.43;;;13.70;99.90;;;;;;20601140;28;20584;-87
2021/10/20 23:02:22;;;;;;;5.00;1.15;;;13.60;99.90;;;;;;20609189;28;20047;-86
2021/10/20 23:12:23;;;;;;;2.35;0.35;;;13.30;99.90;;;;;;20631571;28;20054;-84
2021/10/20 23:22:25;;;;;;;6.55;0.80;;;13.10;99.90;;;;;;20645482;28;20449;-85
2021/10/20 23:32:29;;;;;;;8.23;1.85;;;13.10;99.90;;;;;;20646182;28;20051;-85
2021/10/20 23:42:30;;;;;;;2.65;0.73;;;13.10;99.90;;;;;;20635103;28;20386;-86
2021/10/20 23:52:32;;;;;;;2.80;1.10;;;13.30;99.90;;;;;;20643440;28;20039;-86
